Time;durP1;ratioP1;P1;durP2;ratioP2;P2;SDS_P1;SDS_P2;PMS_P1;PMS_P2;Temp;Humidity;BMP_temperature;BMP_pressure;BME280_temperature;BME280_humidity;BME280_pressure;Samples;Min_cycle;Max_cycle;Signal;HPM_P1;HPM_P2
2021/08/01 00:00:46;;;;;;;;;12.67;12.67;;;;;18.94;89.88;99056.78;3260615;40;3532478;-60
2021/08/01 00:03:14;;;;;;;;;11.33;11.33;;;;;18.97;89.93;99051.00;3259322;40;2791971;-61
2021/08/01 00:05:46;;;;;;;;;12.67;11.00;;;;;18.65;89.73;99046.22;3258466;40;2789816;-61
2021/08/01 00:08:15;;;;;;;;;13.33;12.00;;;;;18.48;90.58;99048.00;3256093;40;3514794;-61
2021/08/01 00:10:44;;;;;;;;;12.20;11.00;;;;;18.46;90.94;99041.88;3275835;40;2789808;-61
2021/08/01 00:13:12;;;;;;;;;11.00;11.00;;;;;18.55;89.98;99040.91;3250963;40;2790833;-60
2021/08/01 00:15:40;;;;;;;;;14.67;12.67;;;;;18.31;91.11;99040.78;3242393;40;3504386;-60
2021/08/01 00:18:08;;;;;;;;;12.67;11.00;;;;;18.54;89.84;99036.50;3260516;40;2791895;-60
2021/08/01 00:20:35;;;;;;;;;11.00;11.00;;;;;18.06;92.48;99039.72;3266733;40;2787717;-61
2021/08/01 00:23:03;;;;;;;;;13.00;13.00;;;;;18.15;91.92;99038.78;3246939;40;3521309;-61
2021/08/01 00:25:31;;;;;;;;;15.50;12.00;;;;;18.20;92.19;99037.28;3266857;40;2808552;-60
2021/08/01 00:27:58;;;;;;;;;11.00;11.00;;;;;17.83;92.48;99039.41;3245932;40;2783594;-60
2021/08/01 00:30:25;;;;;;;;;16.00;12.00;;;;;17.76;93.53;99029.09;3246944;40;2793975;-60
2021/08/01 00:32:54;;;;;;;;;10.00;10.00;;;;;17.93;92.92;99021.13;3243985;40;3503338;-60
2021/08/01 00:35:22;;;;;;;;;14.00;13.00;;;;;18.07;92.36;99017.00;3261894;40;3528351;-60
2021/08/01 00:37:50;;;;;;;;;14.00;13.00;;;;;18.05;93.15;99014.44;3254584;40;3524180;-62
2021/08/01 00:40:20;;;;;;;;;14.50;12.00;;;;;18.30;92.55;99004.59;3258361;40;2793997;-61
2021/08/01 00:42:49;;;;;;;;;11.67;11.00;;;;;17.95;93.25;99008.25;3238378;40;3518953;-61
2021/08/01 00:45:17;;;;;;;;;11.00;11.00;;;;;18.11;93.03;99010.22;3253949;40;2784721;-61
2021/08/01 00:47:45;;;;;;;;;16.00;14.00;;;;;18.22;92.09;99023.56;3260380;40;2814822;-61
2021/08/01 00:50:15;;;;;;;;;11.50;11.50;;;;;18.45;92.08;99012.97;3243587;40;2807523;-61
2021/08/01 00:52:47;;;;;;;;;14.00;13.00;;;;;18.60;91.33;99022.25;3242099;40;2792109;-60
2021/08/01 00:55:15;;;;;;;;;15.00;12.33;;;;;18.76;90.11;99028.81;3243658;40;3530675;-61
2021/08/01 00:57:43;;;;;;;;;14.67;14.00;;;;;18.58;91.32;99028.84;3257228;40;3524180;-61
2021/08/01 01:00:35;;;;;;;;;11.00;11.00;;;;;18.52;90.74;99024.91;3253518;40;2783613;-61
2021/08/01 01:03:17;;;;;;;;;13.50;13.00;;;;;18.81;90.30;99024.59;3262886;40;2805412;-61
2021/08/01 01:05:58;;;;;;;;;13.00;13.00;;;;;18.73;90.50;99027.25;3242541;40;2802307;-61
2021/08/01 01:09:05;;;;;;;;;13.00;12.80;;;;;18.78;90.20;99035.78;3248142;40;2797106;-61
2021/08/01 01:11:40;;;;;;;;;13.00;12.00;;;;;18.65;90.44;99038.06;3241472;40;2786702;-61
2021/08/01 01:14:14;;;;;;;;;16.00;14.50;;;;;18.57;90.95;99033.44;3242064;40;2811724;-61
2021/08/01 01:16:50;;;;;;;;;15.00;13.50;;;;;18.59;91.79;99036.03;3251947;40;2794084;-61
2021/08/01 01:19:49;;;;;;;;;16.00;15.00;;;;;18.51;91.59;99041.38;3241980;40;2819258;-61
2021/08/01 01:22:35;;;;;;;;;12.00;12.00;;;;;18.34;92.55;99029.56;3249037;40;2787759;-61
2021/08/01 01:25:13;;;;;;;;;14.00;14.00;;;;;18.33;91.84;99027.88;3246076;40;2800216;-61
2021/08/01 01:27:53;;;;;;;;;15.33;14.33;;;;;18.43;91.58;99028.59;3245829;40;3529380;-61
2021/08/01 01:30:23;;;;;;;;;16.67;13.00;;;;;18.49;91.23;99022.53;3237251;40;3537670;-61
2021/08/01 01:33:05;;;;;;;;;15.67;15.67;;;;;18.62;91.34;99033.81;3261361;40;3547080;-61
2021/08/01 01:35:38;;;;;;;;;14.67;14.33;;;;;18.42;91.50;99024.19;3238603;40;3530384;-60
2021/08/01 01:38:07;;;;;;;;;15.67;15.00;;;;;18.34;92.06;99018.69;3237745;40;3534597;-60
2021/08/01 01:40:37;;;;;;;;;15.33;13.33;;;;;18.38;91.42;99023.66;3237163;40;3533548;-60
2021/08/01 01:43:07;;;;;;;;;14.00;14.00;;;;;18.37;90.47;99023.81;3238958;40;3529357;-61
2021/08/01 01:45:36;;;;;;;;;14.00;14.00;;;;;18.24;90.98;99024.22;3243907;40;3532505;-61
2021/08/01 01:48:04;;;;;;;;;15.00;15.00;;;;;18.19;91.55;99024.72;3247811;40;2808553;-61
2021/08/01 01:50:32;;;;;;;;;12.67;12.00;;;;;18.21;91.42;99022.69;3244215;40;2787815;-61
2021/08/01 01:53:01;;;;;;;;;14.50;14.50;;;;;18.59;91.10;99016.97;3258635;40;2809892;-61
2021/08/01 01:55:29;;;;;;;;;16.00;16.00;;;;;18.49;91.30;99011.66;3246098;40;2493989;-61
2021/08/01 01:57:57;;;;;;;;;15.00;15.00;;;;;18.67;90.50;99022.47;3240865;40;2498159;-61
2021/08/01 02:00:24;;;;;;;;;16.50;14.50;;;;;18.74;89.63;99047.13;3242621;40;2804375;-62
2021/08/01 02:02:53;;;;;;;;;16.00;16.00;;;;;18.56;90.08;99079.81;3238559;40;3553726;-61
2021/08/01 02:05:21;;;;;;;;;16.67;14.33;;;;;18.76;90.36;99096.81;3244230;40;3548134;-61
2021/08/01 02:07:49;;;;;;;;;16.00;14.00;;;;;18.90;89.30;99108.94;3242942;40;3536988;-60
2021/08/01 02:10:33;;;;;;;;;12.67;11.33;;;;;19.46;86.82;99121.97;3263243;40;3535626;-60
2021/08/01 02:13:05;;;;;;;;;16.00;14.33;;;;;19.61;86.08;99119.44;3245502;40;3541904;-61
2021/08/01 02:15:56;;;;;;;;;13.00;13.00;;;;;19.76;85.71;99114.22;3249946;40;2791862;-61
2021/08/01 02:18:34;;;;;;;;;11.67;11.67;;;;;19.91;85.01;99104.38;3262760;40;3512767;-61
2021/08/01 02:21:03;;;;;;;;;12.33;11.00;;;;;19.94;85.35;99098.59;3261201;40;3525210;-61
2021/08/01 02:23:42;;;;;;;;;15.33;12.00;;;;;19.91;85.88;99098.09;3259393;40;3502286;-61
2021/08/01 02:26:14;;;;;;;;;13.33;12.00;;;;;19.90;85.95;99099.09;3261305;40;3513768;-61
2021/08/01 02:28:43;;;;;;;;;13.00;12.67;;;;;19.94;85.91;99097.75;3262080;40;3510620;-60
2021/08/01 02:31:12;;;;;;;;;14.67;14.00;;;;;19.78;86.50;99082.22;3262608;40;3527298;-61
2021/08/01 02:33:41;;;;;;;;;12.00;12.00;;;;;19.77;86.54;99069.59;3259479;40;2784611;-61
2021/08/01 02:36:13;;;;;;;;;14.67;10.67;;;;;19.82;86.37;99072.69;3262335;40;3512718;-62
2021/08/01 02:38:42;;;;;;;;;13.00;12.67;;;;;19.73;86.50;99062.81;3266428;40;2800232;-60
2021/08/01 02:41:37;;;;;;;;;10.33;10.33;;;;;19.63;86.31;99053.91;3261177;40;3516104;-61
2021/08/01 02:44:20;;;;;;;;;14.33;13.33;;;;;19.66;86.52;99046.28;3262710;40;2798144;-61
2021/08/01 02:46:52;;;;;;;;;9.00;9.00;;;;;19.52;87.26;99053.22;3268288;40;2764805;-61
2021/08/01 02:49:26;;;;;;;;;9.33;8.00;;;;;19.47;87.87;99041.97;3246849;40;2751298;-61
2021/08/01 02:51:59;;;;;;;;;13.33;13.00;;;;;19.45;87.57;99041.28;3263916;40;2802513;-61
2021/08/01 02:54:30;;;;;;;;;15.33;13.00;;;;;19.61;86.70;99034.16;3260939;40;2782788;-61
2021/08/01 02:57:04;;;;;;;;;13.67;12.00;;;;;19.42;87.19;99022.56;3260480;40;2798152;-61
2021/08/01 02:59:34;;;;;;;;;13.33;12.00;;;;;19.37;87.75;99022.19;3261698;40;3501253;-62
2021/08/01 03:02:05;;;;;;;;;16.67;12.33;;;;;19.59;87.14;99011.69;3257911;40;3521294;-60
2021/08/01 03:04:39;;;;;;;;;15.33;12.33;;;;;19.49;87.56;99018.16;3257843;40;2791867;-61
2021/08/01 03:07:08;;;;;;;;;13.00;11.67;;;;;19.53;87.14;99014.06;3255877;40;3504409;-61
2021/08/01 03:09:37;;;;;;;;;15.00;12.00;;;;;19.70;86.33;99020.41;3253319;40;3533536;-62
2021/08/01 03:12:14;;;;;;;;;10.33;10.33;;;;;19.50;87.01;99014.41;3258817;40;2789812;-61
2021/08/01 03:14:42;;;;;;;;;14.00;12.00;;;;;19.65;87.65;99017.31;3258674;40;2789819;-61
2021/08/01 03:17:11;;;;;;;;;11.67;11.67;;;;;19.48;87.93;99021.91;3254155;40;2780488;-61
2021/08/01 03:19:39;;;;;;;;;12.33;12.33;;;;;19.65;86.89;99019.19;3258275;40;3504381;-62
2021/08/01 03:22:08;;;;;;;;;14.00;12.67;;;;;19.44;87.66;99015.06;3256010;40;2786687;-62
2021/08/01 03:24:36;;;;;;;;;13.00;13.00;;;;;19.42;88.00;99010.81;3259336;40;2789824;-62
2021/08/01 03:27:05;;;;;;;;;14.00;12.00;;;;;19.43;87.76;99017.94;3257993;40;3508592;-61
2021/08/01 03:29:33;;;;;;;;;13.00;11.33;;;;;19.55;87.19;99018.50;3260280;40;2784756;-61
2021/08/01 03:32:01;;;;;;;;;12.33;11.33;;;;;19.75;86.76;99017.19;3254066;40;3513796;-62
2021/08/01 03:34:29;;;;;;;;;14.33;13.00;;;;;20.03;85.18;99008.66;3260245;40;3529622;-61
2021/08/01 03:36:58;;;;;;;;;11.67;10.00;;;;;19.84;85.72;99009.88;3257523;40;2787743;-61
2021/08/01 03:39:26;;;;;;;;;13.00;13.00;;;;;19.81;86.73;99008.31;3256881;40;2800216;-62
2021/08/01 03:41:54;;;;;;;;;14.00;12.33;;;;;19.98;86.20;99005.59;3266240;40;2787807;-62
2021/08/01 03:44:22;;;;;;;;;11.67;11.67;;;;;20.16;85.93;99017.16;3254284;40;3508597;-62
2021/08/01 03:46:50;;;;;;;;;12.00;12.00;;;;;20.30;85.00;99021.91;3267895;40;2782504;-61
2021/08/01 03:49:18;;;;;;;;;14.33;13.33;;;;;20.28;84.99;99018.50;3259950;40;2796077;-62
2021/08/01 03:51:46;;;;;;;;;12.67;10.00;;;;;20.39;84.71;99014.56;3253747;40;3510623;-62
2021/08/01 03:54:15;;;;;;;;;13.00;13.00;;;;;19.98;85.98;99005.59;3258516;40;2778369;-62
2021/08/01 03:56:44;;;;;;;;;11.00;11.00;;;;;19.94;86.49;98995.03;3253959;40;3507530;-61
2021/08/01 03:59:13;;;;;;;;;13.33;12.33;;;;;20.00;87.34;99003.56;3259367;40;2791975;-62
2021/08/01 04:01:42;;;;;;;;;11.33;11.00;;;;;20.13;88.05;99015.63;3261531;40;2792047;-62
2021/08/01 04:04:10;;;;;;;;;10.33;10.33;;;;;19.98;88.79;98995.53;3255352;40;3513724;-62
2021/08/01 04:06:38;;;;;;;;;13.33;12.00;;;;;20.05;88.19;98998.44;3261922;40;3514818;-61
2021/08/01 04:09:07;;;;;;;;;13.80;12.20;;;;;19.99;88.50;99001.88;3276411;40;2787784;-61
2021/08/01 04:11:39;;;;;;;;;11.67;11.67;;;;;20.04;88.97;99007.66;3238519;40;3509633;-62
2021/08/01 04:14:07;;;;;;;;;11.00;11.00;;;;;19.87;87.75;99004.06;3254632;40;2786835;-62
2021/08/01 04:16:37;;;;;;;;;12.33;11.33;;;;;19.87;88.08;98993.16;3253478;40;3524173;-62
2021/08/01 04:19:10;;;;;;;;;11.33;10.33;;;;;19.89;87.15;98985.69;3252607;40;3511697;-61
2021/08/01 04:21:39;;;;;;;;;12.00;12.00;;;;;19.76;88.46;98969.84;3254144;40;2793990;-62
2021/08/01 04:24:08;;;;;;;;;16.00;14.00;;;;;19.78;89.14;98961.53;3262308;40;2809595;-61
2021/08/01 04:26:37;;;;;;;;;14.67;12.67;;;;;19.56;89.23;98947.50;3266950;40;2785933;-61
2021/08/01 04:29:06;;;;;;;;;11.67;11.00;;;;;19.86;89.24;98954.19;3266706;40;2784600;-62
2021/08/01 04:31:34;;;;;;;;;14.67;13.67;;;;;19.90;89.12;98958.25;3265883;40;2807542;-61
2021/08/01 04:34:02;;;;;;;;;12.00;12.00;;;;;20.03;87.65;98954.16;3255193;40;3518188;-62
2021/08/01 04:36:31;;;;;;;;;12.67;11.67;;;;;19.95;88.60;98942.22;3258551;40;2787729;-62
2021/08/01 04:39:00;;;;;;;;;12.20;12.20;;;;;19.95;89.05;98950.41;3267984;40;2806466;-61
2021/08/01 04:41:28;;;;;;;;;13.67;13.67;;;;;20.09;88.23;98958.91;3246517;40;3533769;-62
2021/08/01 04:43:56;;;;;;;;;13.33;13.33;;;;;20.22;86.95;98964.69;3245606;40;3526280;-62
2021/08/01 04:46:24;;;;;;;;;15.00;14.00;;;;;20.18;86.39;98960.59;3263112;40;2489915;-61
2021/08/01 04:48:53;;;;;;;;;13.33;12.00;;;;;20.20;87.53;98966.72;3252982;40;3526243;-62
2021/08/01 04:51:21;;;;;;;;;12.67;12.33;;;;;20.17;87.61;98961.63;3241094;40;3529366;-62
2021/08/01 04:53:49;;;;;;;;;15.33;14.00;;;;;20.12;86.87;98953.13;3255747;40;3531472;-61
2021/08/01 04:56:17;;;;;;;;;14.67;12.00;;;;;20.36;86.30;98960.38;3236787;40;3512730;-61
2021/08/01 04:58:46;;;;;;;;;12.00;12.00;;;;;20.48;85.47;98963.56;3253286;40;3516964;-62
2021/08/01 05:01:17;;;;;;;;;12.67;12.67;;;;;20.31;86.41;98990.91;3254579;40;3513309;-62
2021/08/01 05:03:46;;;;;;;;;16.00;16.00;;;;;20.62;85.97;98968.34;3262064;40;3569992;-63
2021/08/01 05:06:14;;;;;;;;;13.00;13.00;;;;;20.49;87.11;98968.88;3242410;40;2797118;-62
2021/08/01 05:08:42;;;;;;;;;7.33;7.33;;;;;20.32;87.64;98965.31;3255497;40;2740088;-63
2021/08/01 05:11:10;;;;;;;;;13.67;13.67;;;;;20.24;88.45;98948.97;3259870;40;2795043;-61
2021/08/01 05:13:38;;;;;;;;;14.33;14.33;;;;;19.82;90.54;98924.72;3255811;40;3528628;-61
2021/08/01 05:16:07;;;;;;;;;16.00;16.00;;;;;19.93;90.89;98914.34;3237403;40;2831477;-61
2021/08/01 05:18:35;;;;;;;;;19.67;17.00;;;;;20.10;89.64;98919.72;3237629;40;3556072;-62
2021/08/01 05:21:03;;;;;;;;;24.50;22.00;;;;;20.63;87.13;98923.66;3240930;40;2841885;-61
2021/08/01 05:23:32;;;;;;;;;18.50;18.50;;;;;20.64;86.81;98929.97;3240337;40;2832509;-62
2021/08/01 05:26:00;;;;;;;;;20.67;20.67;;;;;20.39;88.11;98919.13;3241617;40;3569989;-62
2021/08/01 05:28:30;;;;;;;;;21.00;19.67;;;;;20.47;88.04;98910.91;3242459;40;2841936;-62
2021/08/01 05:30:58;;;;;;;;;18.50;18.50;;;;;20.49;88.26;98921.66;3259698;40;2826506;-61
2021/08/01 05:33:27;;;;;;;;;23.00;23.00;;;;;20.59;88.24;98927.78;3245799;40;2856460;-61
2021/08/01 05:35:55;;;;;;;;;28.67;21.33;;;;;20.62;87.69;98927.44;3264635;40;3610627;-61
2021/08/01 05:38:24;;;;;;;;;20.67;20.67;;;;;20.77;87.43;98924.78;3245383;40;2846452;-61
2021/08/01 05:40:54;;;;;;;;;9.40;9.40;;;;;20.79;87.30;98939.94;3269987;40;2767941;-60
2021/08/01 05:43:22;;;;;;;;;30.33;27.33;;;;;21.12;86.17;98942.50;3240962;40;3587716;-61
2021/08/01 05:45:50;;;;;;;;;25.33;24.00;;;;;21.34;85.35;98948.16;3239774;40;3596008;-62
2021/08/01 05:48:19;;;;;;;;;25.33;25.33;;;;;21.60;84.54;98945.91;3239653;40;3593942;-61
2021/08/01 05:50:48;;;;;;;;;31.25;26.50;;;;;21.69;84.31;98939.34;3240461;40;3601242;-62
2021/08/01 05:53:20;;;;;;;;;29.00;26.33;;;;;21.95;83.90;98935.34;3259192;40;3600200;-62
2021/08/01 05:55:49;;;;;;;;;23.67;23.67;;;;;22.35;82.25;98935.97;3241040;40;3585613;-63
2021/08/01 05:58:17;;;;;;;;;24.67;24.67;;;;;22.35;82.01;98919.56;3241988;40;3602304;-62
2021/08/01 06:00:45;;;;;;;;;23.00;23.00;;;;;22.44;81.87;98907.50;3240687;40;3591867;-60
2021/08/01 06:03:14;;;;;;;;;25.00;23.67;;;;;22.35;81.83;98904.03;3249054;40;3596045;-61
2021/08/01 06:05:43;;;;;;;;;27.67;26.67;;;;;22.27;81.93;98900.53;3245134;40;3602270;-61
2021/08/01 06:08:11;;;;;;;;;22.67;20.67;;;;;22.28;82.86;98903.06;3249308;40;3584797;-62
2021/08/01 06:10:40;;;;;;;;;24.00;24.00;;;;;22.92;80.67;98899.66;3249775;40;3581494;-61
2021/08/01 06:13:09;;;;;;;;;28.00;26.25;;;;;22.79;80.95;98896.78;3247262;40;3598354;-62
2021/08/01 06:15:37;;;;;;;;;25.00;25.00;;;;;23.09;80.24;98900.31;3263771;40;3577303;-61
2021/08/01 06:18:05;;;;;;;;;23.67;22.33;;;;;23.12;80.30;98905.41;3247039;40;3579399;-61
2021/08/01 06:20:34;;;;;;;;;27.00;26.33;;;;;23.42;78.86;98883.34;3241559;40;3596077;-61
2021/08/01 06:23:02;;;;;;;;;26.33;25.00;;;;;23.02;80.16;98891.19;3241271;40;3587767;-61
2021/08/01 06:26:08;;;;;;;;;20.67;20.67;;;;;23.33;79.07;98890.88;3242271;40;3578318;-61
2021/08/01 06:28:37;;;;;;;;;23.67;22.33;;;;;23.48;79.08;98876.22;3243692;40;3573154;-60
2021/08/01 06:31:08;;;;;;;;;23.67;23.67;;;;;23.36;79.60;98870.44;3243438;40;3587731;-59
2021/08/01 06:33:39;;;;;;;;;21.33;21.33;;;;;23.77;78.03;98875.22;3243340;40;3584023;-59
2021/08/01 06:36:12;;;;;;;;;22.00;22.00;;;;;23.99;77.89;98873.31;3246711;40;3580412;-61
2021/08/01 06:38:44;;;;;;;;;27.67;25.33;;;;;23.88;77.00;98861.84;3243988;40;3592124;-60
2021/08/01 06:41:13;;;;;;;;;22.00;19.67;;;;;24.52;75.78;98863.47;3240585;40;3578379;-61
2021/08/01 06:43:42;;;;;;;;;23.33;22.00;;;;;24.14;76.46;98871.25;3246372;40;3578313;-60
2021/08/01 06:46:10;;;;;;;;;20.00;20.00;;;;;25.10;74.73;98871.25;3244591;40;3552301;-62
2021/08/01 06:48:39;;;;;;;;;19.67;19.67;;;;;25.30;73.80;98865.81;3243531;40;3574267;-61
2021/08/01 06:51:08;;;;;;;;;23.67;22.00;;;;;25.51;72.71;98867.50;3249138;40;3571050;-60
2021/08/01 06:53:36;;;;;;;;;22.33;22.33;;;;;24.97;73.92;98857.50;3248548;40;3587712;-60
2021/08/01 06:56:08;;;;;;;;;24.00;21.33;;;;;24.98;74.74;98850.94;3249916;40;3570324;-61
2021/08/01 06:58:36;;;;;;;;;18.00;18.00;;;;;25.82;71.75;98849.53;3249165;40;3561983;-60
2021/08/01 07:01:05;;;;;;;;;24.00;24.00;;;;;24.82;75.01;98845.84;3243841;40;3583544;-60
2021/08/01 07:03:33;;;;;;;;;18.67;18.67;;;;;25.57;73.58;98844.69;3244870;40;3567925;-60
2021/08/01 07:06:02;;;;;;;;;23.67;23.00;;;;;25.70;72.48;98831.97;3250051;40;3580413;-61
2021/08/01 07:08:30;;;;;;;;;20.33;19.33;;;;;25.83;70.67;98816.31;3247416;40;3577303;-62
2021/08/01 07:10:58;;;;;;;;;20.00;20.00;;;;;26.03;70.89;98805.28;3250034;40;3573630;-61
2021/08/01 07:13:26;;;;;;;;;21.00;21.00;;;;;26.18;69.54;98795.94;3249992;40;3580413;-61
2021/08/01 07:16:04;;;;;;;;;21.67;20.33;;;;;25.88;69.71;98790.94;3243528;40;3578298;-61
2021/08/01 07:18:33;;;;;;;;;21.00;21.00;;;;;26.39;69.07;98787.38;3241528;40;3576255;-59
2021/08/01 07:21:01;;;;;;;;;24.67;24.00;;;;;25.69;70.92;98797.31;3241520;40;3580431;-61
2021/08/01 07:23:29;;;;;;;;;22.00;22.00;;;;;25.43;71.40;98793.53;3243301;40;3576476;-61
2021/08/01 07:25:58;;;;;;;;;21.67;21.00;;;;;25.88;70.68;98785.44;3240956;40;3553326;-61
2021/08/01 07:28:26;;;;;;;;;17.67;16.00;;;;;25.61;70.75;98774.47;3244279;40;3546090;-60
2021/08/01 07:30:54;;;;;;;;;22.67;21.33;;;;;25.79;69.55;98781.22;3241421;40;3574175;-61
2021/08/01 07:33:24;;;;;;;;;21.00;21.00;;;;;25.70;71.13;98786.09;3241433;40;3573110;-61
2021/08/01 07:35:53;;;;;;;;;22.67;21.00;;;;;25.23;71.44;98785.28;3246517;40;3581477;-59
2021/08/01 07:38:21;;;;;;;;;25.33;25.33;;;;;25.08;72.43;98785.47;3244327;40;3589775;-60
2021/08/01 07:40:50;;;;;;;;;22.67;21.33;;;;;25.16;72.16;98787.19;3242532;40;3582491;-60
2021/08/01 07:43:19;;;;;;;;;20.33;19.00;;;;;25.10;71.66;98797.09;3240968;40;2828363;-59
2021/08/01 07:45:47;;;;;;;;;19.00;18.00;;;;;25.13;71.93;98815.91;3265623;40;3573410;-60
2021/08/01 07:48:15;;;;;;;;;22.33;19.33;;;;;25.09;72.53;98831.13;3242109;40;3575188;-61
2021/08/01 07:50:44;;;;;;;;;20.33;19.00;;;;;24.92;71.77;98846.28;3247579;40;3579339;-59
2021/08/01 07:53:12;;;;;;;;;21.00;17.50;;;;;25.01;71.78;98869.75;3247859;40;2833563;-59
2021/08/01 07:55:43;;;;;;;;;16.67;16.67;;;;;25.43;70.01;98902.63;3238786;40;2489807;-61
2021/08/01 07:58:11;;;;;;;;;21.00;20.00;;;;;25.31;70.52;98963.69;3257960;40;3556472;-62
2021/08/01 08:00:39;;;;;;;;;24.67;22.33;;;;;25.10;72.31;99011.38;3249296;40;3593970;-66
2021/08/01 08:03:08;;;;;;;;;24.00;21.33;;;;;24.83;74.19;99067.19;3246527;40;3561677;-63
2021/08/01 08:05:36;;;;;;;;;21.67;21.67;;;;;24.64;75.64;99090.72;3244052;40;3579371;-63
2021/08/01 08:08:06;;;;;;;;;28.00;25.50;;;;;24.46;77.16;99115.91;3243662;40;3592120;-63
2021/08/01 08:10:36;;;;;;;;;27.00;26.00;;;;;24.03;80.04;99088.50;3258324;40;3595206;-62
2021/08/01 08:13:04;;;;;;;;;30.00;26.67;;;;;22.90;88.47;99037.78;3240983;40;3594988;-62
2021/08/01 08:15:33;;;;;;;;;27.33;24.67;;;;;22.60;92.85;99020.53;3242930;40;3596040;-62
2021/08/01 08:18:02;;;;;;;;;30.67;28.67;;;;;22.90;91.40;99027.66;3250492;40;3576226;-62
2021/08/01 08:20:31;;;;;;;;;36.67;33.33;;;;;22.16;96.68;99024.84;3248597;40;3593930;-63
2021/08/01 08:22:59;;;;;;;;;35.67;31.00;;;;;21.98;97.57;98988.81;3247086;40;3579355;-61
2021/08/01 08:25:27;;;;;;;;;30.67;29.33;;;;;21.95;98.64;98956.38;3248917;40;3580401;-57
2021/08/01 08:27:56;;;;;;;;;34.00;32.67;;;;;21.86;99.23;98912.72;3249249;40;3590833;-56
2021/08/01 08:30:30;;;;;;;;;36.00;30.00;;;;;22.01;99.88;98893.63;3248594;40;3581454;-57
2021/08/01 08:32:58;;;;;;;;;35.00;32.33;;;;;22.29;99.73;98876.56;3248665;40;3586654;-57
2021/08/01 08:35:27;;;;;;;;;38.33;33.33;;;;;22.28;99.41;98863.94;3243701;40;3581458;-57
2021/08/01 08:37:55;;;;;;;;;38.00;34.33;;;;;22.58;96.43;98859.25;3240331;40;3597333;-57
2021/08/01 08:40:24;;;;;;;;;32.33;28.67;;;;;23.06;94.33;98869.72;3240773;40;3598109;-57
2021/08/01 08:42:52;;;;;;;;;31.67;31.33;;;;;23.09;94.84;98866.59;3240917;40;3584578;-58
2021/08/01 08:45:20;;;;;;;;;41.67;34.67;;;;;23.22;95.05;98872.19;3242544;40;3598390;-57
2021/08/01 08:47:50;;;;;;;;;33.00;30.67;;;;;22.91;96.93;98851.44;3240413;40;3573126;-58
2021/08/01 08:50:21;;;;;;;;;35.67;32.67;;;;;23.08;98.50;98835.63;3242653;40;3577295;-58
2021/08/01 08:53:01;;;;;;;;;33.33;31.67;;;;;22.70;99.17;98815.84;3249064;40;3582512;-58
2021/08/01 08:55:34;;;;;;;;;29.33;29.33;;;;;22.77;99.77;98816.75;3249042;40;3579367;-58
2021/08/01 08:58:04;;;;;;;;;30.00;28.00;;;;;23.14;99.69;98806.59;3248042;40;3600199;-58
2021/08/01 09:00:34;;;;;;;;;35.67;33.00;;;;;23.23;97.89;98805.44;3242778;40;3589787;-58
2021/08/01 09:03:03;;;;;;;;;32.67;32.00;;;;;23.31;98.01;98788.84;3250367;40;3587703;-58
2021/08/01 09:05:32;;;;;;;;;36.67;33.00;;;;;23.63;97.68;98760.00;3241531;40;3607514;-58
2021/08/01 09:08:02;;;;;;;;;34.67;33.00;;;;;23.83;95.60;98751.94;3242276;40;3603612;-59
2021/08/01 09:10:30;;;;;;;;;32.67;30.00;;;;;24.37;92.97;98760.38;3248943;40;3571081;-58
2021/08/01 09:12:59;;;;;;;;;33.00;30.00;;;;;25.14;90.73;98767.28;3248541;40;3574147;-58
2021/08/01 09:15:29;;;;;;;;;33.00;31.75;;;;;24.69;87.56;98754.13;3249282;40;3599149;-58
2021/08/01 09:18:00;;;;;;;;;33.33;30.67;;;;;24.96;88.09;98751.41;3262954;40;3592905;-57
2021/08/01 09:20:34;;;;;;;;;30.67;30.00;;;;;25.34;89.30;98748.09;3240491;40;3588814;-59
2021/08/01 09:23:06;;;;;;;;;34.00;30.00;;;;;25.46;86.99;98737.28;3240637;40;3589784;-58
2021/08/01 09:25:42;;;;;;;;;32.33;30.00;;;;;25.83;85.84;98749.47;3240182;40;3585704;-58
2021/08/01 09:28:14;;;;;;;;;34.33;32.67;;;;;25.37;86.29;98742.16;3242251;40;3596057;-57
2021/08/01 09:31:05;;;;;;;;;38.25;32.00;;;;;25.87;84.42;98739.75;3240761;40;3604502;-58
2021/08/01 09:33:40;;;;;;;;;34.75;31.00;;;;;25.91;85.19;98732.78;3261514;40;3600472;-57
2021/08/01 09:36:18;;;;;;;;;29.33;27.00;;;;;26.09;80.77;98731.22;3261973;40;3582777;-57
2021/08/01 09:38:51;;;;;;;;;29.00;27.33;;;;;26.63;79.75;98727.97;3250329;40;3579367;-58
2021/08/01 09:41:32;;;;;;;;;31.50;29.50;;;;;26.45;78.43;98723.19;3250902;40;3591193;-57
2021/08/01 09:44:05;;;;;;;;;22.00;20.33;;;;;26.39;77.94;98709.47;3263488;40;3573134;-58
2021/08/01 09:46:42;;;;;;;;;29.00;25.75;;;;;26.73;78.01;98702.72;3247902;40;3596025;-58
2021/08/01 09:49:23;;;;;;;;;26.25;23.75;;;;;26.98;75.77;98713.72;3263701;40;3589790;-57
2021/08/01 09:52:03;;;;;;;;;24.00;22.67;;;;;26.87;74.35;98711.72;3258787;40;3581446;-58
2021/08/01 09:54:49;;;;;;;;;28.00;26.00;;;;;27.09;74.37;98720.44;3248639;40;3598101;-58
2021/08/01 09:57:20;;;;;;;;;25.67;25.67;;;;;27.54;74.66;98711.97;3260793;40;3589827;-58
2021/08/01 10:00:09;;;;;;;;;25.75;24.25;;;;;27.83;73.88;98699.38;3241705;40;3592892;-58
2021/08/01 10:02:41;;;;;;;;;14.33;13.33;;;;;27.77;70.40;98703.03;3257761;40;2485653;-58
2021/08/01 10:05:22;;;;;;;;;21.67;21.67;;;;;28.19;70.46;98695.72;3261277;40;3583821;-58
2021/08/01 10:07:51;;;;;;;;;20.00;19.33;;;;;28.36;71.38;98686.81;3266543;40;3578462;-58
2021/08/01 10:10:26;;;;;;;;;20.00;20.00;;;;;28.41;69.15;98681.41;3249905;40;3575181;-59
2021/08/01 10:12:59;;;;;;;;;23.00;23.00;;;;;28.38;68.17;98674.44;3245497;40;3593949;-59
2021/08/01 10:15:28;;;;;;;;;24.67;24.67;;;;;28.48;68.89;98667.53;3266922;40;3581431;-58
2021/08/01 10:17:58;;;;;;;;;23.50;23.50;;;;;28.60;68.04;98674.78;3247793;40;3584563;-58
2021/08/01 10:20:27;;;;;;;;;20.67;19.33;;;;;28.71;66.62;98666.78;3257916;40;3572170;-58
2021/08/01 10:22:56;;;;;;;;;22.25;22.25;;;;;29.02;65.99;98673.91;3241199;40;3593989;-60
2021/08/01 10:25:33;;;;;;;;;24.33;21.67;;;;;28.65;66.04;98669.41;3256645;40;3586651;-59
2021/08/01 10:28:08;;;;;;;;;21.33;21.00;;;;;29.14;66.23;98665.63;3254948;40;3578586;-60
2021/08/01 10:30:41;;;;;;;;;23.33;23.33;;;;;29.45;65.46;98659.72;3260022;40;3602276;-60
2021/08/01 10:33:15;;;;;;;;;24.33;23.33;;;;;29.01;66.08;98656.44;3246783;40;3587692;-60
2021/08/01 10:35:52;;;;;;;;;22.00;19.67;;;;;29.56;63.93;98648.91;3243739;40;3575208;-62
2021/08/01 10:38:23;;;;;;;;;23.67;22.33;;;;;29.49;63.81;98644.34;3262515;40;3592919;-60
2021/08/01 10:40:58;;;;;;;;;23.14;22.71;;;;;29.59;63.41;98634.56;3256474;40;3578583;-61
2021/08/01 10:43:30;;;;;;;;;22.33;21.00;;;;;29.97;62.35;98648.69;3237818;40;3577564;-60
2021/08/01 10:46:00;;;;;;;;;21.33;20.33;;;;;29.68;60.93;98649.75;3253190;40;3585618;-60
2021/08/01 10:48:33;;;;;;;;;21.29;20.29;;;;;29.95;60.20;98656.41;3271869;40;3579364;-60
2021/08/01 10:51:02;;;;;;;;;23.00;23.00;;;;;29.60;60.80;98653.72;3244687;40;3581438;-59
2021/08/01 10:53:31;;;;;;;;;20.00;20.00;;;;;30.07;60.74;98642.53;3265172;40;3570008;-60
2021/08/01 10:56:14;;;;;;;;;23.33;19.00;;;;;30.39;59.61;98656.75;3249877;40;3568942;-61
2021/08/01 10:58:42;;;;;;;;;23.33;21.33;;;;;30.31;60.17;98648.84;3248351;40;1891895;-60
2021/08/01 11:01:11;;;;;;;;;20.67;20.67;;;;;30.03;59.35;98654.34;3259086;40;3581463;-61
2021/08/01 11:03:41;;;;;;;;;21.67;20.33;;;;;29.82;59.26;98642.00;3240825;40;3576231;-59
2021/08/01 11:06:44;;;;;;;;;20.67;19.33;;;;;30.23;57.98;98634.50;3245485;40;3576238;-59
2021/08/01 11:09:13;;;;;;;;;23.33;22.00;;;;;30.20;57.92;98641.38;3238812;40;3578310;-59
2021/08/01 11:11:45;;;;;;;;;22.00;20.00;;;;;29.97;58.57;98631.25;3257261;40;3577267;-59
2021/08/01 11:14:53;;;;;;;;;22.75;21.75;;;;;30.10;58.70;98624.59;3241116;40;3582507;-59
2021/08/01 11:17:48;;;;;;;;;20.33;20.33;;;;;30.40;58.02;98621.56;3255661;40;3579632;-59
2021/08/01 11:20:23;;;;;;;;;22.00;22.00;;;;;30.34;57.37;98620.63;3241358;40;3588765;-59